| time (UTC) | temp F | wind direction | speed knots | gust knots | rain 1hr in | rain 24hr in | rain mn in | humidity % | barometer mb |
| 20260506023002 | 50 | 247 | 0.0 | 0.0 | 0.00 | 0.00 | 0.00 | 89 | 1002.3 |
| 20260506021501 | 50 | 171 | 0.9 | 0.0 | 0.00 | 0.00 | 0.00 | 89 | 1002.6 |
| 20260506010000 | 50 | 219 | 0.9 | 0.0 | 0.00 | 0.00 | 0.00 | 87 | 1002.9 |
| 20260506004502 | 50 | 260 | 0.9 | 0.0 | 0.00 | 0.00 | 0.00 | 87 | 1003.2 |
| 20260506003002 | 50 | 244 | 0.0 | 0.0 | 0.00 | 0.00 | 0.00 | 87 | 1003.2 |
| 20260506001500 | 50 | 265 | 0.9 | 0.0 | 0.00 | 0.00 | 0.00 | 87 | 1003.3 |
| 20260506000000 | 50 | 266 | 0.0 | 0.0 | 0.00 | 0.00 | 0.00 | 87 | 1003.4 |
| 20260505234500 | 50 | 221 | 0.9 | 0.0 | 0.00 | 0.00 | 0.00 | 85 | 1003.5 |
| 20260505233002 | 50 | 266 | 0.0 | 0.0 | 0.00 | 0.00 | 0.00 | 84 | 1003.6 |
| 20260505231501 | 50 | 237 | 0.9 | 0.0 | 0.00 | 0.00 | 0.00 | 84 | 1003.7 |
| 20260505230000 | 50 | 264 | 0.0 | 0.0 | 0.00 | 0.00 | 0.00 | 83 | 1003.7 |
| 20260505224500 | 50 | 255 | 0.9 | 0.0 | 0.00 | 0.00 | 0.00 | 83 | 1003.8 |
| 20260505223002 | 50 | 232 | 0.9 | 0.0 | 0.00 | 0.00 | 0.00 | 84 | 1004.0 |
| 20260505221500 | 50 | 234 | 0.0 | 0.0 | 0.00 | 0.00 | 0.00 | 84 | 1004.0 |
| 20260505220000 | 50 | 207 | 0.9 | 0.0 | 0.00 | 0.00 | 0.00 | 84 | 1003.8 |
| 20260505214502 | 50 | 250 | 0.0 | 0.0 | 0.00 | 0.00 | 0.00 | 85 | 1003.9 |
| 20260505213001 | 50 | 244 | 0.9 | 0.0 | 0.00 | 0.00 | 0.00 | 84 | 1004.3 |
| 20260505211502 | 50 | 248 | 0.0 | 0.0 | 0.00 | 0.00 | 0.00 | 84 | 1004.4 |
| 20260505210002 | 50 | 216 | 0.9 | 0.0 | 0.00 | 0.00 | 0.00 | 85 | 1004.3 |
| 20260505204500 | 50 | 237 | 0.0 | 0.0 | 0.00 | 0.00 | 0.00 | 85 | 1004.4 |
| 20260505203002 | 50 | 235 | 0.0 | 0.0 | 0.00 | 0.00 | 0.00 | 85 | 1004.6 |
| 20260505201500 | 50 | 255 | 0.9 | 0.0 | 0.00 | 0.00 | 0.00 | 85 | 1004.6 |
| 20260505200000 | 50 | 192 | 0.9 | 0.0 | 0.00 | 0.00 | 0.00 | 85 | 1004.3 |
| 20260505194500 | 50 | 271 | 1.7 | 0.0 | 0.00 | 0.00 | 0.00 | 85 | 1004.6 |
| 20260505193000 | 50 | 56 | 0.0 | 0.0 | 0.00 | 0.00 | 0.00 | 85 | 1004.5 |
| 20260505191502 | 52 | 266 | 0.0 | 0.0 | 0.00 | 0.00 | 0.00 | 86 | 1004.2 |
| 20260505190003 | 52 | 12 | 1.7 | 0.0 | 0.00 | 0.00 | 0.00 | 86 | 1004.1 |
| 20260505181502 | 54 | 333 | 0.9 | 0.0 | 0.00 | 0.00 | 0.00 | 84 | 1004.0 |
| 20260505180000 | 54 | 232 | 1.7 | 0.0 | 0.00 | 0.00 | 0.00 | 83 | 1004.0 |
| 20260505173000 | 54 | 221 | 0.9 | 0.0 | 0.00 | 0.00 | 0.00 | 81 | 1004.0 |
| 20260505171500 | 54 | 225 | 0.9 | 0.0 | 0.00 | 0.00 | 0.00 | 79 | 1004.2 |
| 20260505170000 | 54 | 238 | 0.0 | 0.0 | 0.00 | 0.00 | 0.00 | 78 | 1004.0 |
| 20260505164501 | 54 | 226 | 0.0 | 0.0 | 0.00 | 0.00 | 0.00 | 79 | 1004.1 |
| 20260505163002 | 54 | 261 | 0.9 | 0.0 | 0.00 | 0.00 | 0.00 | 80 | 1004.1 |
| 20260505161502 | 54 | 250 | 0.9 | 0.0 | 0.00 | 0.00 | 0.00 | 79 | 1004.2 |
| 20260505153002 | 54 | 249 | 0.9 | 0.0 | 0.00 | 0.00 | 0.00 | 81 | 1004.3 |
| 20260505151501 | 54 | 294 | 1.7 | 0.0 | 0.00 | 0.00 | 0.00 | 82 | 1004.6 |
| 20260505124500 | 55 | 259 | 0.9 | 0.0 | 0.00 | 0.00 | 0.00 | 81 | 1005.4 |
| 20260505123002 | 54 | 247 | 0.0 | 0.0 | 0.00 | 0.00 | 0.00 | 83 | 1005.6 |
| 20260505121502 | 54 | 247 | 0.0 | 0.0 | 0.00 | 0.00 | 0.00 | 84 | 1005.5 |
| 20260505120001 | 52 | 48 | 1.7 | 0.0 | 0.00 | 0.00 | 0.00 | 85 | 1005.7 |
| 20260505114502 | 52 | 223 | 0.0 | 0.0 | 0.00 | 0.00 | 0.00 | 86 | 1005.6 |
| 20260505113000 | 52 | 14 | 1.7 | 0.0 | 0.00 | 0.00 | 0.00 | 85 | 1005.6 |
| 20260505111502 | 52 | 253 | 0.0 | 0.0 | 0.00 | 0.00 | 0.00 | 86 | 1005.6 |
| 20260505101500 | 52 | 253 | 0.0 | 0.0 | 0.00 | 0.00 | 0.00 | 84 | 1005.9 |
| 20260505094502 | 52 | 261 | 0.0 | 0.0 | 0.00 | 0.00 | 0.00 | 84 | 1006.3 |
| 20260505093000 | 52 | 30 | 0.9 | 0.0 | 0.00 | 0.00 | 0.00 | 84 | 1006.1 |
| 20260505084502 | 50 | 224 | 0.9 | 0.0 | 0.00 | 0.00 | 0.00 | 88 | 1006.3 |
| 20260505083003 | 48 | 316 | 0.9 | 0.0 | 0.00 | 0.00 | 0.00 | 91 | 1006.4 |
| 20260505081500 | 48 | 271 | 0.0 | 0.0 | 0.00 | 0.00 | 0.00 | 93 | 1006.6 |
| 20260505080000 | 48 | 274 | 0.9 | 0.0 | 0.00 | 0.00 | 0.00 | 94 | 1006.7 |
| 20260505074500 | 48 | 149 | 0.0 | 0.0 | 0.00 | 0.00 | 0.00 | 95 | 1006.9 |
| 20260505073002 | 46 | 315 | 0.0 | 0.0 | 0.00 | 0.00 | 0.00 | 96 | 1006.6 |
| 20260505071500 | 46 | 65 | 0.9 | 0.0 | 0.00 | 0.00 | 0.00 | 96 | 1006.7 |
| 20260505070000 | 46 | 238 | 0.0 | 0.0 | 0.00 | 0.00 | 0.00 | 97 | 1006.7 |
| 20260505064502 | 46 | 288 | 0.0 | 0.0 | 0.00 | 0.00 | 0.00 | 97 | 1006.4 |
| 20260505063001 | 46 | 45 | 1.7 | 0.0 | 0.00 | 0.00 | 0.00 | 97 | 1006.6 |
| 20260505061500 | 46 | 254 | 0.0 | 0.0 | 0.00 | 0.00 | 0.00 | 96 | 1006.5 |
| 20260505040000 | 46 | 50 | 0.9 | 0.0 | 0.00 | 0.00 | 0.00 | 92 | 1006.5 |
| 20260505024502 | 48 | 254 | 0.0 | 0.0 | 0.00 | 0.00 | 0.00 | 92 | 1006.6 |